Time;durP1;ratioP1;P1;durP2;ratioP2;P2;SDS_P1;SDS_P2;PMS_P1;PMS_P2;Temp;Humidity;BMP_temperature;BMP_pressure;BME280_temperature;BME280_humidity;BME280_pressure;Samples;Min_cycle;Max_cycle;Signal;HPM_P1;HPM_P2
2022/10/10 00:01:33;;;;;;;372.37;352.23;;;12.00;32.70;;;;;;4994682;28;20443;-68
2022/10/10 00:04:00;;;;;;;424.47;400.33;;;12.00;33.40;;;;;;4994980;28;20453;-68
2022/10/10 00:06:26;;;;;;;478.77;451.87;;;12.00;32.80;;;;;;4994925;28;20435;-68
2022/10/10 00:08:52;;;;;;;465.60;437.23;;;12.00;32.70;;;;;;4994775;28;20925;-68
2022/10/10 00:11:20;;;;;;;518.73;489.17;;;12.00;32.70;;;;;;4993322;28;20829;-68
2022/10/10 00:13:45;;;;;;;468.83;443.13;;;11.90;33.30;;;;;;4995073;28;20416;-68
2022/10/10 00:16:12;;;;;;;542.23;510.20;;;12.00;33.60;;;;;;4994593;28;20909;-68
2022/10/10 00:18:38;;;;;;;493.93;464.93;;;12.00;33.30;;;;;;4994532;28;20444;-68
2022/10/10 00:21:04;;;;;;;527.63;496.40;;;12.10;32.80;;;;;;4994336;28;20453;-68
2022/10/10 00:23:29;;;;;;;476.27;448.50;;;12.10;32.80;;;;;;4994593;28;20413;-68
2022/10/10 00:25:55;;;;;;;541.40;509.07;;;12.10;32.80;;;;;;4992980;28;20420;-68
2022/10/10 00:28:21;;;;;;;517.03;486.13;;;12.10;32.80;;;;;;4994518;28;20639;-68
2022/10/10 00:30:46;;;;;;;459.23;433.67;;;12.10;32.10;;;;;;4992801;28;20205;-68
2022/10/10 00:33:12;;;;;;;474.47;447.83;;;12.10;32.80;;;;;;4994900;28;20673;-68
2022/10/10 00:35:38;;;;;;;382.77;361.77;;;12.20;32.70;;;;;;4994493;28;20288;-69
2022/10/10 00:38:04;;;;;;;403.07;381.50;;;12.20;32.40;;;;;;4994395;28;20831;-68
2022/10/10 00:40:30;;;;;;;479.17;451.90;;;12.20;32.40;;;;;;4994178;28;20447;-68
2022/10/10 00:42:56;;;;;;;453.40;427.27;;;12.20;32.90;;;;;;4994189;28;20207;-69
2022/10/10 00:45:33;;;;;;;442.53;418.17;;;12.20;32.60;;;;;;4993066;28;20175;-68
2022/10/10 00:48:10;;;;;;;324.73;306.83;;;12.20;32.90;;;;;;4994150;28;20426;-68
2022/10/10 00:50:42;;;;;;;473.40;447.53;;;12.20;32.50;;;;;;4993946;28;20444;-68
2022/10/10 00:53:09;;;;;;;477.43;451.30;;;12.20;32.90;;;;;;4993932;28;20422;-69
2022/10/10 00:55:35;;;;;;;437.57;414.77;;;12.30;32.40;;;;;;4994178;28;20450;-68
2022/10/10 00:58:03;;;;;;;377.10;356.07;;;12.30;32.20;;;;;;4993812;28;20822;-68
2022/10/10 01:00:29;;;;;;;388.73;365.97;;;12.20;32.50;;;;;;4992742;28;20868;-68
2022/10/10 01:02:55;;;;;;;459.07;433.67;;;12.20;32.70;;;;;;4993552;28;20443;-68
2022/10/10 01:05:20;;;;;;;470.87;444.83;;;12.20;32.90;;;;;;4993882;28;20279;-68
2022/10/10 01:07:46;;;;;;;461.43;433.93;;;12.30;32.80;;;;;;4992432;28;20219;-68
2022/10/10 01:10:15;;;;;;;443.40;418.10;;;12.20;32.90;;;;;;4993697;28;20556;-68
2022/10/10 01:13:06;;;;;;;714.27;670.13;;;12.20;32.60;;;;;;4993416;28;20176;-68
2022/10/10 01:16:00;;;;;;;746.90;699.43;;;12.20;32.90;;;;;;4992264;28;20415;-68
2022/10/10 01:18:44;;;;;;;855.90;799.17;;;12.20;32.90;;;;;;4993667;28;20853;-68
2022/10/10 01:21:26;;;;;;;507.93;477.73;;;12.20;32.90;;;;;;4993352;28;20515;-69
2022/10/10 01:24:21;;;;;;;449.63;425.03;;;12.20;32.90;;;;;;4993663;28;20427;-68
2022/10/10 01:27:07;;;;;;;478.43;449.20;;;12.20;32.90;;;;;;4993465;28;20825;-68
2022/10/10 01:29:44;;;;;;;393.43;372.93;;;12.30;33.00;;;;;;4993324;28;20440;-68
2022/10/10 01:32:31;;;;;;;658.67;616.83;;;12.30;32.70;;;;;;4993286;28;20425;-68
2022/10/10 01:35:31;;;;;;;640.47;599.23;;;12.20;32.90;;;;;;4993515;28;20754;-68
2022/10/10 01:38:21;;;;;;;709.13;663.60;;;12.20;32.90;;;;;;4992746;28;20466;-68
2022/10/10 01:41:06;;;;;;;466.43;439.60;;;12.10;33.10;;;;;;4993580;28;20443;-67
2022/10/10 01:43:35;;;;;;;691.90;647.10;;;12.10;33.70;;;;;;4993234;28;20399;-67
2022/10/10 01:46:13;;;;;;;664.50;622.50;;;12.20;33.20;;;;;;4993116;28;20418;-67
2022/10/10 01:48:39;;;;;;;358.03;339.27;;;12.30;33.00;;;;;;4993022;28;20407;-68
2022/10/10 01:51:14;;;;;;;441.20;417.63;;;12.30;32.50;;;;;;4992763;28;20408;-67
2022/10/10 01:53:39;;;;;;;689.30;646.03;;;12.40;33.10;;;;;;4993043;28;20410;-67
2022/10/10 01:56:26;;;;;;;449.93;424.10;;;12.40;31.90;;;;;;4992840;28;20412;-67
2022/10/10 01:59:19;;;;;;;445.10;420.70;;;12.20;32.90;;;;;;4992833;28;20240;-67
2022/10/10 02:02:13;;;;;;;409.33;386.93;;;12.20;32.90;;;;;;4992598;28;20436;-67
2022/10/10 02:05:05;;;;;;;411.43;387.33;;;12.00;34.10;;;;;;4991494;28;20424;-67
2022/10/10 02:07:42;;;;;;;451.17;426.10;;;11.90;33.70;;;;;;4990064;28;20535;-69
2022/10/10 02:10:10;;;;;;;388.83;368.17;;;12.00;33.70;;;;;;4992672;28;20435;-68
2022/10/10 02:12:37;;;;;;;375.13;354.80;;;11.90;33.40;;;;;;4992439;28;20431;-69
2022/10/10 02:15:14;;;;;;;418.47;394.73;;;11.80;33.90;;;;;;4991266;28;20419;-68
2022/10/10 02:17:42;;;;;;;634.97;598.97;;;11.70;34.30;;;;;;4991329;28;20475;-68
2022/10/10 02:20:11;;;;;;;619.57;583.93;;;11.70;34.80;;;;;;4992455;28;20433;-68
2022/10/10 02:22:40;;;;;;;533.90;501.07;;;11.60;35.40;;;;;;4992243;28;20408;-68
2022/10/10 02:25:06;;;;;;;493.17;464.53;;;11.60;35.20;;;;;;4992576;28;20426;-67
2022/10/10 02:27:47;;;;;;;578.00;547.20;;;11.50;36.10;;;;;;4992454;28;20419;-68
2022/10/10 02:30:14;;;;;;;464.77;439.70;;;11.70;35.20;;;;;;4992454;28;20431;-67
2022/10/10 02:32:46;;;;;;;546.87;516.93;;;11.70;35.40;;;;;;4992210;28;20466;-68
2022/10/10 02:35:22;;;;;;;569.57;538.27;;;11.60;36.00;;;;;;4991133;28;20460;-68
2022/10/10 02:37:48;;;;;;;530.00;500.73;;;11.70;36.80;;;;;;4991052;28;20495;-67
2022/10/10 02:40:19;;;;;;;513.53;483.33;;;11.80;36.00;;;;;;4991028;28;20470;-68
2022/10/10 02:42:46;;;;;;;410.90;386.90;;;11.80;35.10;;;;;;4990867;28;20789;-68
2022/10/10 02:45:12;;;;;;;336.10;318.53;;;11.70;36.00;;;;;;4992385;28;20425;-68
2022/10/10 02:47:37;;;;;;;481.33;454.27;;;11.60;36.30;;;;;;4992340;28;20420;-68
2022/10/10 02:50:03;;;;;;;500.83;474.00;;;11.50;37.10;;;;;;4994319;28;20995;-68
2022/10/10 02:52:29;;;;;;;389.67;368.27;;;11.50;37.50;;;;;;4995946;28;20656;-68
2022/10/10 02:54:54;;;;;;;690.03;646.50;;;11.50;37.50;;;;;;4996092;28;20451;-68
2022/10/10 02:57:20;;;;;;;655.43;614.70;;;11.50;37.50;;;;;;4996123;28;20231;-68
2022/10/10 02:59:45;;;;;;;488.63;459.90;;;11.60;37.60;;;;;;4996017;28;20203;-68
2022/10/10 03:02:11;;;;;;;459.33;433.07;;;11.60;36.80;;;;;;4995727;28;20244;-68
2022/10/10 03:04:36;;;;;;;572.23;541.33;;;11.70;36.10;;;;;;4995901;28;20185;-68
2022/10/10 03:07:03;;;;;;;491.70;464.50;;;11.80;36.40;;;;;;4996185;28;20193;-68
2022/10/10 03:09:29;;;;;;;385.47;363.23;;;11.80;35.50;;;;;;4994317;28;20205;-68
2022/10/10 03:11:54;;;;;;;501.27;472.50;;;11.80;35.80;;;;;;4995559;28;20780;-68
2022/10/10 03:14:20;;;;;;;343.90;326.73;;;11.80;36.00;;;;;;4995866;28;20212;-68
2022/10/10 03:16:45;;;;;;;313.97;297.00;;;11.70;36.00;;;;;;4995709;28;20196;-68
2022/10/10 03:19:11;;;;;;;900.20;838.07;;;11.70;36.50;;;;;;4995596;28;20197;-68
2022/10/10 03:21:36;;;;;;;490.37;464.10;;;11.70;37.00;;;;;;4995411;28;20634;-68
2022/10/10 03:24:04;;;;;;;556.27;521.07;;;11.80;36.60;;;;;;4995600;28;20174;-68
2022/10/10 03:26:29;;;;;;;584.67;552.63;;;11.90;36.10;;;;;;4995598;28;20236;-67
2022/10/10 03:28:55;;;;;;;426.60;405.27;;;11.90;35.60;;;;;;4995519;28;20436;-68
2022/10/10 03:31:21;;;;;;;728.07;681.43;;;12.00;35.70;;;;;;4995310;28;20669;-68
2022/10/10 03:33:46;;;;;;;563.20;531.93;;;12.00;35.60;;;;;;4995459;28;20257;-68
2022/10/10 03:36:12;;;;;;;721.03;676.17;;;12.00;35.40;;;;;;4995135;28;20180;-68
2022/10/10 03:38:40;;;;;;;492.60;463.03;;;12.00;35.10;;;;;;4995217;28;20523;-68
2022/10/10 03:41:06;;;;;;;390.43;369.93;;;12.10;35.10;;;;;;4995068;28;20594;-68
2022/10/10 03:43:32;;;;;;;717.00;670.27;;;12.00;34.30;;;;;;4995221;28;20417;-68
2022/10/10 03:45:57;;;;;;;517.27;488.87;;;12.00;34.70;;;;;;4995275;28;20428;-68
2022/10/10 03:48:23;;;;;;;623.77;584.73;;;12.20;34.00;;;;;;4995135;28;20187;-68
2022/10/10 03:50:48;;;;;;;488.50;460.27;;;12.10;34.30;;;;;;4994709;28;20666;-67
2022/10/10 03:53:14;;;;;;;575.40;543.37;;;12.10;33.80;;;;;;4995034;28;20177;-68
2022/10/10 03:55:41;;;;;;;608.47;574.60;;;12.10;34.10;;;;;;4995220;28;20188;-68
2022/10/10 03:58:08;;;;;;;547.47;514.60;;;12.10;34.10;;;;;;4994888;28;20258;-68
2022/10/10 04:00:33;;;;;;;309.17;291.47;;;12.10;33.60;;;;;;4994531;28;20432;-68
2022/10/10 04:02:59;;;;;;;356.03;335.50;;;12.10;34.00;;;;;;4994231;28;20472;-69
2022/10/10 04:05:25;;;;;;;383.00;361.67;;;12.00;34.20;;;;;;4994826;28;20173;-69
2022/10/10 04:07:50;;;;;;;540.60;507.67;;;11.90;34.40;;;;;;4994813;28;20280;-68
2022/10/10 04:10:16;;;;;;;547.47;517.97;;;12.00;35.10;;;;;;4994702;28;20202;-68
2022/10/10 04:12:41;;;;;;;538.50;510.13;;;12.00;35.10;;;;;;4994483;28;20516;-68
2022/10/10 04:15:07;;;;;;;449.33;426.33;;;12.00;34.20;;;;;;4994694;28;20210;-68
2022/10/10 04:17:33;;;;;;;533.37;503.07;;;12.00;34.60;;;;;;4994665;28;20740;-68
2022/10/10 04:19:58;;;;;;;735.57;688.13;;;12.00;34.00;;;;;;4994609;28;20439;-68
2022/10/10 04:22:24;;;;;;;611.73;575.37;;;12.00;33.80;;;;;;4994317;28;20230;-68
2022/10/10 04:24:50;;;;;;;645.23;606.13;;;11.90;34.10;;;;;;4994514;28;20188;-68
2022/10/10 04:27:15;;;;;;;655.03;613.27;;;11.90;34.20;;;;;;4994856;28;20187;-67
2022/10/10 04:29:41;;;;;;;519.43;490.87;;;11.90;34.50;;;;;;4994478;28;20213;-68
2022/10/10 04:32:06;;;;;;;614.13;576.93;;;11.80;34.50;;;;;;4994274;28;20207;-68
2022/10/10 04:34:32;;;;;;;640.90;605.17;;;11.80;34.90;;;;;;4994532;28;20227;-68
2022/10/10 04:36:58;;;;;;;693.20;649.70;;;11.80;34.90;;;;;;4994225;28;20280;-68
2022/10/10 04:39:23;;;;;;;373.03;351.70;;;11.70;35.10;;;;;;4994099;28;20216;-68
2022/10/10 04:41:49;;;;;;;715.37;668.67;;;11.70;35.50;;;;;;4993866;28;20622;-68
2022/10/10 04:44:16;;;;;;;539.57;509.33;;;11.70;35.90;;;;;;4992822;28;20689;-67
2022/10/10 04:46:41;;;;;;;521.27;490.87;;;11.60;35.70;;;;;;4994015;28;20664;-67
2022/10/10 04:49:07;;;;;;;479.40;451.30;;;11.60;35.70;;;;;;4993893;28;20511;-68
2022/10/10 04:51:32;;;;;;;518.53;490.57;;;11.60;36.20;;;;;;4993702;28;20193;-67
2022/10/10 04:53:58;;;;;;;565.70;532.30;;;11.60;36.80;;;;;;4993928;28;20555;-67
2022/10/10 04:56:25;;;;;;;540.67;509.43;;;11.50;36.40;;;;;;4993778;28;20605;-67
2022/10/10 04:58:50;;;;;;;590.03;554.57;;;11.50;37.00;;;;;;4993922;28;20468;-68
2022/10/10 05:01:16;;;;;;;592.40;558.33;;;11.50;37.50;;;;;;4993390;28;20428;-68
2022/10/10 05:03:41;;;;;;;708.53;664.03;;;11.50;36.60;;;;;;4993960;28;20177;-68
2022/10/10 05:06:07;;;;;;;683.93;641.73;;;11.50;38.20;;;;;;4992537;28;20180;-68
2022/10/10 05:08:33;;;;;;;473.60;447.67;;;11.40;37.40;;;;;;4993568;28;20195;-67
2022/10/10 05:10:58;;;;;;;630.97;594.60;;;11.40;37.60;;;;;;4993366;28;20217;-68
2022/10/10 05:13:24;;;;;;;584.10;551.77;;;11.40;37.40;;;;;;4992553;28;20545;-67
2022/10/10 05:15:51;;;;;;;621.50;587.90;;;11.30;37.90;;;;;;4993476;28;20184;-67
2022/10/10 05:18:17;;;;;;;458.53;432.30;;;11.30;38.00;;;;;;4992803;28;20207;-67
2022/10/10 05:20:46;;;;;;;638.43;601.63;;;11.30;38.70;;;;;;4993081;28;20431;-67
2022/10/10 05:23:15;;;;;;;675.47;636.80;;;11.30;38.50;;;;;;4993373;28;20416;-68
2022/10/10 05:25:46;;;;;;;696.47;656.13;;;11.40;38.40;;;;;;4993387;28;20558;-68
2022/10/10 05:28:12;;;;;;;559.07;527.17;;;11.30;38.60;;;;;;4993272;28;20432;-68
2022/10/10 05:30:37;;;;;;;689.87;648.50;;;11.40;39.60;;;;;;4993268;28;20444;-68
2022/10/10 05:33:03;;;;;;;741.30;694.67;;;11.30;38.50;;;;;;4993103;28;20188;-68
2022/10/10 05:35:29;;;;;;;567.07;535.07;;;11.30;39.00;;;;;;4993202;28;20268;-67
2022/10/10 05:37:54;;;;;;;642.37;605.10;;;11.30;39.80;;;;;;4993101;28;20212;-68
2022/10/10 05:40:20;;;;;;;762.13;715.43;;;11.30;40.40;;;;;;4993058;28;20220;-67
2022/10/10 05:42:45;;;;;;;563.80;530.93;;;11.40;39.50;;;;;;4992839;28;20184;-67
2022/10/10 05:45:11;;;;;;;697.93;649.73;;;11.40;40.00;;;;;;4992961;28;20552;-67
2022/10/10 05:47:36;;;;;;;774.67;721.03;;;11.40;40.60;;;;;;4993011;28;20184;-67
2022/10/10 05:50:03;;;;;;;713.37;671.93;;;11.40;40.00;;;;;;4991712;28;20208;-67
2022/10/10 05:52:29;;;;;;;494.57;467.33;;;11.50;39.60;;;;;;4992688;28;20191;-66
2022/10/10 05:54:55;;;;;;;659.43;619.57;;;11.70;38.70;;;;;;4992965;28;20416;-67
2022/10/10 05:57:20;;;;;;;662.80;623.00;;;11.70;37.70;;;;;;4992161;28;20864;-67
2022/10/10 05:59:46;;;;;;;623.97;586.17;;;11.70;37.70;;;;;;4989285;28;20582;-67
2022/10/10 06:02:13;;;;;;;641.47;604.27;;;11.80;38.10;;;;;;4974076;28;20605;-67
2022/10/10 06:04:38;;;;;;;793.37;738.50;;;11.80;37.80;;;;;;4974891;28;20191;-67
2022/10/10 06:07:04;;;;;;;758.87;707.40;;;11.80;38.20;;;;;;4975301;28;20890;-67
2022/10/10 06:09:30;;;;;;;710.87;663.63;;;11.80;38.40;;;;;;4986526;28;20205;-67
2022/10/10 06:11:55;;;;;;;767.30;710.20;;;11.90;38.50;;;;;;4988861;28;20284;-67
2022/10/10 06:14:21;;;;;;;661.17;610.53;;;12.00;38.10;;;;;;4973556;28;20647;-67
2022/10/10 06:16:46;;;;;;;720.70;671.20;;;12.00;37.90;;;;;;4973418;28;20287;-67
2022/10/10 06:19:12;;;;;;;634.37;594.77;;;12.10;36.80;;;;;;4974340;28;20730;-67
2022/10/10 06:21:38;;;;;;;738.93;690.20;;;12.30;36.90;;;;;;4990891;28;20658;-67
2022/10/10 06:24:04;;;;;;;601.03;568.00;;;12.40;35.30;;;;;;4992177;28;20269;-67
2022/10/10 06:26:30;;;;;;;576.17;541.17;;;12.40;35.50;;;;;;4974755;28;20860;-67
2022/10/10 06:28:56;;;;;;;740.93;696.03;;;12.50;34.90;;;;;;4988065;28;20523;-67
2022/10/10 06:31:21;;;;;;;648.20;609.10;;;12.70;35.30;;;;;;4979786;28;20189;-67
2022/10/10 06:33:48;;;;;;;740.87;687.77;;;12.80;35.70;;;;;;4992344;28;20185;-67
2022/10/10 06:36:15;;;;;;;716.57;668.70;;;12.80;34.00;;;;;;4992188;28;20202;-68
2022/10/10 06:38:42;;;;;;;678.70;635.73;;;13.10;33.20;;;;;;4974447;28;20523;-68
2022/10/10 06:41:09;;;;;;;693.80;650.80;;;13.30;33.00;;;;;;4975767;28;20722;-68
2022/10/10 06:43:35;;;;;;;594.27;557.70;;;13.40;32.30;;;;;;4992421;28;20461;-71
2022/10/10 06:46:01;;;;;;;660.47;620.93;;;13.60;31.30;;;;;;4991806;28;20454;-68
2022/10/10 06:48:29;;;;;;;603.23;569.43;;;13.70;29.60;;;;;;4993245;28;20234;-68
2022/10/10 06:50:59;;;;;;;635.63;599.40;;;13.70;29.10;;;;;;5003180;28;20444;-68
2022/10/10 06:53:26;;;;;;;622.70;588.83;;;13.70;29.30;;;;;;4990369;28;20433;-68
2022/10/10 06:55:53;;;;;;;692.47;648.37;;;13.80;29.30;;;;;;4988683;28;20424;-69
2022/10/10 06:58:19;;;;;;;646.80;601.00;;;14.00;28.40;;;;;;4987773;28;20477;-68
2022/10/10 07:00:52;;;;;;;644.83;608.47;;;14.00;28.00;;;;;;4987500;28;20443;-68
2022/10/10 07:03:19;;;;;;;682.83;636.47;;;14.10;27.70;;;;;;4988118;28;20428;-68
2022/10/10 07:05:51;;;;;;;626.67;592.17;;;14.10;28.10;;;;;;4988362;28;20434;-68
2022/10/10 07:08:17;;;;;;;518.77;489.43;;;14.20;27.60;;;;;;4988117;28;20430;-69
2022/10/10 07:10:43;;;;;;;573.77;540.80;;;14.10;27.00;;;;;;4987577;28;20439;-68
2022/10/10 07:13:08;;;;;;;620.80;586.00;;;14.30;26.70;;;;;;4987226;28;20515;-69
2022/10/10 07:15:34;;;;;;;609.10;573.20;;;14.10;27.00;;;;;;4968544;28;20189;-69
2022/10/10 07:17:59;;;;;;;595.07;561.87;;;14.10;27.20;;;;;;4982567;28;20220;-68
2022/10/10 07:20:26;;;;;;;595.23;562.63;;;14.00;27.70;;;;;;4971015;28;20393;-68
2022/10/10 07:22:52;;;;;;;613.57;575.17;;;14.20;27.50;;;;;;4968152;28;20639;-68
2022/10/10 07:25:17;;;;;;;749.60;675.77;;;14.30;27.10;;;;;;4968552;28;20417;-68
2022/10/10 07:27:43;;;;;;;637.50;592.27;;;14.40;26.90;;;;;;4969033;28;20473;-68
2022/10/10 07:30:09;;;;;;;585.33;549.87;;;14.50;25.70;;;;;;4967625;28;20213;-68
2022/10/10 07:32:35;;;;;;;580.57;537.77;;;14.50;25.70;;;;;;4968146;28;20223;-68
2022/10/10 07:35:00;;;;;;;595.77;560.80;;;14.50;25.70;;;;;;4969144;28;20463;-68
2022/10/10 07:37:26;;;;;;;575.07;541.93;;;14.30;25.60;;;;;;4989765;28;20575;-68
2022/10/10 07:39:52;;;;;;;570.87;537.63;;;14.40;25.60;;;;;;4992189;28;20262;-67
2022/10/10 07:42:18;;;;;;;627.30;589.93;;;14.40;25.70;;;;;;4991307;28;20181;-68
2022/10/10 07:44:44;;;;;;;573.00;538.80;;;14.50;26.00;;;;;;4991030;28;20447;-69
2022/10/10 07:47:09;;;;;;;548.00;514.10;;;14.50;25.40;;;;;;4992130;28;20197;-68
2022/10/10 07:49:35;;;;;;;607.17;567.47;;;14.70;25.30;;;;;;4992157;28;20216;-68
2022/10/10 07:52:00;;;;;;;540.10;509.33;;;14.70;25.20;;;;;;4990849;28;20192;-68
2022/10/10 07:54:27;;;;;;;467.37;439.93;;;14.80;24.70;;;;;;4991509;28;20258;-68
2022/10/10 07:56:52;;;;;;;460.50;437.33;;;14.80;24.80;;;;;;4990613;28;20255;-68
2022/10/10 07:59:18;;;;;;;597.23;559.70;;;14.70;24.60;;;;;;4990489;28;20592;-68
2022/10/10 08:01:43;;;;;;;671.00;622.30;;;14.70;24.80;;;;;;4988291;28;20195;-68
2022/10/10 08:04:09;;;;;;;592.77;556.47;;;14.60;25.30;;;;;;4987986;28;20517;-69
2022/10/10 08:06:35;;;;;;;528.73;497.20;;;14.60;25.60;;;;;;4990021;28;20192;-68
2022/10/10 08:09:00;;;;;;;566.67;530.60;;;14.60;25.80;;;;;;4988961;28;20204;-69
2022/10/10 08:11:26;;;;;;;458.73;435.13;;;14.60;25.20;;;;;;4989934;28;20199;-69
2022/10/10 08:13:51;;;;;;;542.90;509.57;;;14.70;24.50;;;;;;4990412;28;20220;-68
2022/10/10 08:16:17;;;;;;;622.60;577.27;;;14.80;24.80;;;;;;4985792;28;20485;-69
2022/10/10 08:18:43;;;;;;;494.73;468.10;;;14.90;24.60;;;;;;4975850;28;20225;-68
2022/10/10 08:21:12;;;;;;;709.93;658.10;;;14.80;25.40;;;;;;4990301;28;20462;-68
2022/10/10 08:23:37;;;;;;;635.83;597.00;;;15.10;24.90;;;;;;4974871;28;20193;-68
2022/10/10 08:26:06;;;;;;;589.50;554.07;;;15.20;24.00;;;;;;4971181;28;20819;-67
2022/10/10 08:28:32;;;;;;;523.27;490.77;;;15.30;24.30;;;;;;4971086;28;20184;-70
2022/10/10 08:30:58;;;;;;;562.07;525.53;;;15.40;23.90;;;;;;4975475;28;20781;-67
2022/10/10 08:33:27;;;;;;;564.90;522.83;;;15.40;23.40;;;;;;4990514;28;20196;-67
2022/10/10 08:35:53;;;;;;;541.73;509.13;;;15.30;23.50;;;;;;4974858;28;20602;-67
2022/10/10 08:38:19;;;;;;;611.33;573.77;;;15.30;23.40;;;;;;4971041;28;20460;-67
2022/10/10 08:40:48;;;;;;;497.67;468.97;;;15.20;23.70;;;;;;4970599;28;20296;-67
2022/10/10 08:43:32;;;;;;;579.63;548.73;;;15.20;23.70;;;;;;4977457;28;20673;-68
2022/10/10 08:46:05;;;;;;;660.40;613.97;;;15.30;23.40;;;;;;4977165;28;21467;-68
2022/10/10 08:48:31;;;;;;;565.13;526.53;;;15.50;23.00;;;;;;4970662;28;20650;-68
2022/10/10 08:51:02;;;;;;;544.43;513.37;;;15.70;22.30;;;;;;4970099;28;20786;-67
2022/10/10 08:53:43;;;;;;;641.47;602.70;;;15.80;22.40;;;;;;4971040;28;20960;-67
2022/10/10 08:56:15;;;;;;;724.50;680.53;;;16.00;21.60;;;;;;4986543;28;20450;-68
2022/10/10 08:58:48;;;;;;;532.67;504.67;;;15.80;21.70;;;;;;4989647;28;20517;-66
2022/10/10 09:01:19;;;;;;;596.87;561.67;;;15.80;22.30;;;;;;4988578;28;20481;-66
2022/10/10 09:03:47;;;;;;;638.83;601.57;;;16.10;21.80;;;;;;4990270;28;20954;-67
2022/10/10 09:06:45;;;;;;;543.37;511.50;;;16.10;21.30;;;;;;4989927;28;20849;-67
2022/10/10 09:09:20;;;;;;;613.13;576.57;;;16.30;21.60;;;;;;4967011;28;20970;-68
2022/10/10 09:11:54;;;;;;;678.83;636.37;;;16.30;20.60;;;;;;4986238;28;21140;-68
2022/10/10 09:14:31;;;;;;;700.83;655.30;;;16.30;20.70;;;;;;4988754;28;20895;-66
2022/10/10 09:17:15;;;;;;;687.53;642.63;;;16.40;21.00;;;;;;4986958;28;20459;-67
2022/10/10 09:19:47;;;;;;;644.20;604.80;;;16.60;20.50;;;;;;4989429;28;20676;-67
2022/10/10 09:22:17;;;;;;;501.40;470.67;;;16.90;20.80;;;;;;4989062;28;20478;-68
2022/10/10 09:24:55;;;;;;;608.67;570.20;;;17.10;20.10;;;;;;4989499;28;20956;-67
2022/10/10 09:27:27;;;;;;;505.17;471.73;;;17.40;19.50;;;;;;4989316;28;20792;-67
2022/10/10 09:30:00;;;;;;;733.23;682.43;;;17.70;18.70;;;;;;4990246;28;20475;-67
2022/10/10 09:32:57;;;;;;;572.87;533.50;;;17.80;18.20;;;;;;4982604;28;20480;-68
2022/10/10 09:35:29;;;;;;;620.90;558.67;;;17.80;18.20;;;;;;4971602;28;20432;-68
2022/10/10 09:38:27;;;;;;;690.97;643.97;;;17.80;18.70;;;;;;4981741;28;20523;-67
2022/10/10 09:40:58;;;;;;;557.87;523.53;;;17.50;19.50;;;;;;4968359;28;20460;-68
2022/10/10 09:43:29;;;;;;;593.63;555.27;;;17.50;19.20;;;;;;4984596;28;20761;-68
2022/10/10 09:45:55;;;;;;;619.63;578.30;;;17.60;19.10;;;;;;4993305;28;20412;-67
2022/10/10 09:48:39;;;;;;;587.17;549.97;;;17.60;18.80;;;;;;4982887;28;20956;-67
2022/10/10 09:51:07;;;;;;;620.97;573.23;;;17.50;19.30;;;;;;4973334;28;20193;-68
2022/10/10 09:53:33;;;;;;;530.80;498.10;;;17.40;19.70;;;;;;4973435;28;20412;-67
2022/10/10 09:55:59;;;;;;;643.53;602.87;;;17.40;20.00;;;;;;4987975;28;20523;-67
2022/10/10 09:58:41;;;;;;;525.13;492.43;;;17.30;20.10;;;;;;4992337;28;20566;-68
2022/10/10 10:01:21;;;;;;;517.80;485.47;;;17.20;20.10;;;;;;4992801;28;20415;-68
2022/10/10 10:04:08;;;;;;;575.07;538.87;;;17.30;20.50;;;;;;4994011;28;20478;-69
2022/10/10 10:06:34;;;;;;;622.90;581.73;;;17.60;20.10;;;;;;4986528;28;20447;-69
2022/10/10 10:09:02;;;;;;;552.63;517.63;;;17.70;19.30;;;;;;4992807;28;20800;-69
2022/10/10 10:11:32;;;;;;;585.43;546.53;;;17.80;18.80;;;;;;4992484;28;20407;-69
2022/10/10 10:14:01;;;;;;;590.67;553.20;;;17.70;19.30;;;;;;4992395;28;20404;-69
2022/10/10 10:16:32;;;;;;;585.40;550.17;;;17.90;19.50;;;;;;4992315;28;20412;-69
2022/10/10 10:18:58;;;;;;;614.80;575.80;;;17.60;19.30;;;;;;4992122;28;20454;-68
2022/10/10 10:21:24;;;;;;;479.90;450.40;;;17.50;19.60;;;;;;4992322;28;20419;-68
2022/10/10 10:23:58;;;;;;;623.67;582.97;;;17.60;19.60;;;;;;4992925;28;20655;-68
2022/10/10 10:26:43;;;;;;;614.73;574.13;;;17.70;19.30;;;;;;4993097;28;20507;-67
2022/10/10 10:29:27;;;;;;;637.90;597.37;;;17.70;19.80;;;;;;4992445;28;20501;-69
2022/10/10 10:32:03;;;;;;;616.30;576.83;;;17.80;20.00;;;;;;4998228;28;20419;-69
2022/10/10 10:34:53;;;;;;;708.43;662.07;;;17.70;20.50;;;;;;4972880;28;20409;-69
2022/10/10 10:37:45;;;;;;;618.47;578.13;;;17.80;20.40;;;;;;4972827;28;20818;-69
2022/10/10 10:40:26;;;;;;;685.87;638.57;;;18.10;19.60;;;;;;4974958;28;20476;-68
2022/10/10 10:43:26;;;;;;;628.80;586.83;;;18.10;19.60;;;;;;4972021;28;20444;-69
2022/10/10 10:46:18;;;;;;;536.80;502.37;;;18.40;19.00;;;;;;4972075;28;21042;-68
2022/10/10 10:49:21;;;;;;;750.67;698.47;;;18.50;19.20;;;;;;4972691;28;20413;-68
2022/10/10 10:52:09;;;;;;;513.13;481.00;;;18.90;18.50;;;;;;4971081;28;20432;-69
2022/10/10 10:54:45;;;;;;;714.70;666.50;;;19.30;17.20;;;;;;4972860;28;20745;-68
2022/10/10 10:57:55;;;;;;;581.10;542.83;;;19.30;17.30;;;;;;4973148;28;20454;-68
2022/10/10 11:00:22;;;;;;;535.37;501.20;;;19.50;17.50;;;;;;4960914;28;20472;-68
2022/10/10 11:03:16;;;;;;;670.60;624.53;;;19.60;17.50;;;;;;4972550;28;20409;-68
2022/10/10 11:05:50;;;;;;;644.83;596.47;;;19.90;17.40;;;;;;4972938;28;20424;-68
2022/10/10 11:08:40;;;;;;;672.87;623.33;;;19.80;17.90;;;;;;4972661;28;20423;-68
2022/10/10 11:11:34;;;;;;;701.17;652.07;;;19.90;18.10;;;;;;4973076;28;20413;-68
2022/10/10 11:14:41;;;;;;;594.30;556.23;;;20.00;17.90;;;;;;4977850;28;20409;-69
2022/10/10 11:17:18;;;;;;;696.60;647.73;;;20.10;17.00;;;;;;4976342;28;20463;-68
2022/10/10 11:20:16;;;;;;;717.40;667.50;;;20.00;17.10;;;;;;4976352;28;20437;-68
2022/10/10 11:23:05;;;;;;;682.50;635.07;;;19.90;17.40;;;;;;4967870;28;20432;-68
2022/10/10 11:26:05;;;;;;;621.50;578.43;;;19.80;17.40;;;;;;4976277;28;20411;-68
2022/10/10 11:28:45;;;;;;;656.20;608.87;;;19.70;17.40;;;;;;4971864;28;20838;-68
2022/10/10 11:31:19;;;;;;;605.27;562.43;;;19.70;17.20;;;;;;4975777;28;20408;-68
2022/10/10 11:33:50;;;;;;;632.93;587.23;;;19.80;16.80;;;;;;4975982;28;20413;-68
2022/10/10 11:36:22;;;;;;;591.63;549.57;;;19.80;16.30;;;;;;4977019;28;20413;-69
2022/10/10 11:38:56;;;;;;;551.33;515.50;;;19.70;16.30;;;;;;4975739;28;20464;-68
2022/10/10 11:41:27;;;;;;;587.13;546.50;;;19.90;16.50;;;;;;4975645;28;20662;-68
2022/10/10 11:43:55;;;;;;;533.77;496.80;;;19.90;15.30;;;;;;4975632;28;20511;-68
2022/10/10 11:46:39;;;;;;;547.80;510.47;;;19.90;15.10;;;;;;4975801;28;20488;-68
2022/10/10 11:49:10;;;;;;;562.50;525.00;;;20.00;14.80;;;;;;4975687;28;20523;-69
2022/10/10 11:51:42;;;;;;;475.83;445.87;;;20.00;14.60;;;;;;4975446;28;20500;-69
2022/10/10 11:54:45;;;;;;;619.07;575.43;;;20.10;15.10;;;;;;4975811;28;20914;-69
2022/10/10 11:57:17;;;;;;;624.50;579.30;;;20.10;14.50;;;;;;4975644;28;20936;-68
2022/10/10 11:59:56;;;;;;;563.83;524.63;;;20.20;13.80;;;;;;4975622;28;20437;-68
2022/10/10 12:02:29;;;;;;;588.87;545.67;;;20.30;14.00;;;;;;4990221;28;20416;-68
2022/10/10 12:04:54;;;;;;;417.67;390.87;;;20.40;12.70;;;;;;4975271;28;20413;-68
2022/10/10 12:07:45;;;;;;;583.53;542.43;;;20.50;12.40;;;;;;4975511;28;20487;-68
2022/10/10 12:10:22;;;;;;;588.80;546.27;;;20.60;9.80;;;;;;4976045;28;20614;-68
2022/10/10 12:12:52;;;;;;;560.43;519.83;;;20.60;8.60;;;;;;4990157;28;20485;-68
2022/10/10 12:15:44;;;;;;;540.00;501.03;;;20.70;7.00;;;;;;4991287;28;20426;-69
2022/10/10 12:18:44;;;;;;;521.53;485.03;;;20.70;7.70;;;;;;4989282;28;20474;-70
2022/10/10 12:21:15;;;;;;;691.30;638.80;;;20.80;8.70;;;;;;4978604;28;20451;-68
2022/10/10 12:23:47;;;;;;;513.70;476.17;;;20.80;8.10;;;;;;4990756;28;20412;-69
2022/10/10 12:26:19;;;;;;;586.73;545.90;;;20.90;8.20;;;;;;4990656;28;20428;-69
2022/10/10 12:29:04;;;;;;;511.33;477.23;;;21.00;7.40;;;;;;4992874;28;20432;-69